createdAt,value
2018-02-15T00:00:05.095Z,960.58
2018-02-15T00:15:05.219Z,960.68
2018-02-15T00:30:04.681Z,960.73
2018-02-15T00:45:05.680Z,960.79
2018-02-15T01:00:04.574Z,960.92
2018-02-15T01:15:06.317Z,961.03
2018-02-15T01:30:07.858Z,960.79
2018-02-15T01:45:09.850Z,960.79
2018-02-15T02:00:05.251Z,960.89
2018-02-15T02:15:05.374Z,960.6
2018-02-15T02:30:04.513Z,960.44
2018-02-15T02:45:04.634Z,960.2
2018-02-15T03:00:05.333Z,960.12
2018-02-15T03:15:05.454Z,959.94
2018-02-15T03:30:05.248Z,959.75
2018-02-15T03:45:05.400Z,959.41
2018-02-15T04:00:04.851Z,959.33
2018-02-15T04:15:05.793Z,959.38
2018-02-15T04:30:04.648Z,959.41
2018-02-15T04:45:05.397Z,959.49
2018-02-15T05:00:05.262Z,959.57
2018-02-15T05:15:05.252Z,959.28
2018-02-15T05:30:05.332Z,959.22
2018-02-15T05:45:07.918Z,958.93
2018-02-15T06:00:05.657Z,959.09
2018-02-15T06:15:06.266Z,958.85
2018-02-15T06:30:05.452Z,958.9
2018-02-15T06:45:04.374Z,959.01
2018-02-15T07:00:05.328Z,966.31
2018-02-15T07:15:08.321Z,966.31
2018-02-15T07:30:05.488Z,966.34
2018-02-15T07:45:04.413Z,966.5
2018-02-15T08:00:08.055Z,966.29
2018-02-15T08:15:04.466Z,966.31
2018-02-15T08:30:05.073Z,966.23
2018-02-15T08:45:05.479Z,966.34
2018-02-15T09:00:04.408Z,965.91
2018-02-15T09:15:05.313Z,965.72
2018-02-15T09:30:05.927Z,965.7
2018-02-15T09:45:04.831Z,965.43
2018-02-15T10:00:04.746Z,965.22
2018-02-15T10:15:08.328Z,964.92
2018-02-15T10:30:05.434Z,965.35
2018-02-15T10:45:08.316Z,965.16
2018-02-15T11:00:07.833Z,964.97
2018-02-15T11:15:05.343Z,965.11
2018-02-15T11:30:04.938Z,965.06
2018-02-15T11:45:04.842Z,965.03
2018-02-15T12:00:04.816Z,964.6
2018-02-15T12:15:05.281Z,964.49
2018-02-15T12:30:04.393Z,964.17
2018-02-15T12:45:05.779Z,964.04
2018-02-15T13:00:06.384Z,963.42
2018-02-15T13:15:04.744Z,963.05
2018-02-15T13:30:05.169Z,963.1
2018-02-15T13:45:04.676Z,962.99
2018-02-15T14:00:04.729Z,963.1
2018-02-15T14:15:05.404Z,962.94
2018-02-15T14:30:04.647Z,963.21
2018-02-15T14:45:04.652Z,963.23
2018-02-15T15:00:05.418Z,963.32
2018-02-15T15:15:04.891Z,963.1
2018-02-15T15:30:05.360Z,963.29
2018-02-15T15:45:04.493Z,963.5
2018-02-15T16:00:05.521Z,963.58
2018-02-15T16:15:04.554Z,963.72
2018-02-15T16:30:05.397Z,963.8
2018-02-15T16:45:08.036Z,963.64
2018-02-15T17:00:05.024Z,963.85
2018-02-15T17:15:05.056Z,964.06
2018-02-15T17:30:05.798Z,964.09
2018-02-15T17:45:05.559Z,964.12
2018-02-15T18:00:04.690Z,964.31
2018-02-15T18:15:05.170Z,963.98
2018-02-15T18:30:05.236Z,963.9
2018-02-15T18:45:05.092Z,964.15
2018-02-15T19:00:04.990Z,963.98
2018-02-15T19:15:12.115Z,963.93
2018-02-15T19:30:04.712Z,963.85
2018-02-15T19:45:04.602Z,963.69
2018-02-15T20:00:05.296Z,963.58
2018-02-15T20:15:05.292Z,963.69
2018-02-15T20:30:05.174Z,963.74
2018-02-15T20:45:05.292Z,963.5
2018-02-15T21:00:05.007Z,963.58
2018-02-15T21:15:05.992Z,963.5
2018-02-15T21:30:20.634Z,963.42
2018-02-15T21:45:05.129Z,963.61
2018-02-15T22:00:04.582Z,963.53
2018-02-15T22:15:04.619Z,963.26
2018-02-15T22:30:05.312Z,963.32
2018-02-15T22:45:04.796Z,963.29
2018-02-15T23:00:05.466Z,963.26
2018-02-15T23:15:05.019Z,963.15
2018-02-15T23:30:05.085Z,962.91
2018-02-15T23:45:05.213Z,962.7
